Time;durP1;ratioP1;P1;durP2;ratioP2;P2;SDS_P1;SDS_P2;PMS_P1;PMS_P2;Temp;Humidity;BMP_temperature;BMP_pressure;BME280_temperature;BME280_humidity;BME280_pressure;Samples;Min_cycle;Max_cycle;Signal;HPM_P1;HPM_P2
2022/09/05 00:02:02;;;;;;;1.90;1.70;;;;;;;;;;5115004;28;20100;-82
2022/09/05 00:04:40;;;;;;;2.37;1.83;;;;;;;;;;5096604;28;20123;-83
2022/09/05 00:07:18;;;;;;;2.00;1.67;;;;;;;;;;5096425;28;20115;-83
2022/09/05 00:09:43;;;;;;;2.60;1.98;;;;;;;;;;5114760;28;20023;-84
2022/09/05 00:12:10;;;;;;;1.70;1.60;;;;;;;;;;5096337;28;20045;-83
2022/09/05 00:14:54;;;;;;;2.58;1.77;;;;;;;;;;5080125;28;20039;-83
2022/09/05 00:17:26;;;;;;;2.00;1.70;;;;;;;;;;5114876;28;20032;-83
2022/09/05 00:20:26;;;;;;;2.25;2.03;;;;;;;;;;5079091;28;20058;-83
2022/09/05 00:23:06;;;;;;;3.13;1.95;;;;;;;;;;5096246;28;20023;-83
2022/09/05 00:25:51;;;;;;;2.83;1.90;;;;;;;;;;5079763;28;20427;-83
2022/09/05 00:28:37;;;;;;;2.20;2.00;;;;;;;;;;5045204;28;20395;-83
2022/09/05 00:31:21;;;;;;;1.70;1.60;;;;;;;;;;5114603;28;20030;-83
2022/09/05 00:34:01;;;;;;;2.08;1.70;;;;;;;;;;5096032;28;20062;-83
2022/09/05 00:36:45;;;;;;;2.13;1.85;;;;;;;;;;5096659;28;20024;-83
2022/09/05 00:39:18;;;;;;;2.83;2.03;;;;;;;;;;5096149;28;20375;-83
2022/09/05 00:41:47;;;;;;;2.13;2.00;;;;;;;;;;5079046;28;20471;-83
2022/09/05 00:44:13;;;;;;;2.58;1.85;;;;;;;;;;5078931;28;20037;-83
2022/09/05 00:46:42;;;;;;;2.78;1.85;;;;;;;;;;5095867;28;20442;-83
2022/09/05 00:49:36;;;;;;;2.17;1.77;;;;;;;;;;5078791;28;20538;-83
2022/09/05 00:52:19;;;;;;;2.33;1.70;;;;;;;;;;5078839;28;20038;-83
2022/09/05 00:55:18;;;;;;;2.13;1.93;;;;;;;;;;5079212;28;20124;-84
2022/09/05 00:58:05;;;;;;;2.03;1.70;;;;;;;;;;5114460;28;20024;-81
2022/09/05 01:01:00;;;;;;;2.97;2.00;;;;;;;;;;5114050;28;20027;-83
2022/09/05 01:03:51;;;;;;;3.00;1.90;;;;;;;;;;5093439;28;20040;-82
2022/09/05 01:06:23;;;;;;;2.22;1.98;;;;;;;;;;5077935;28;20448;-82
2022/09/05 01:09:12;;;;;;;1.85;1.60;;;;;;;;;;5095516;28;20035;-82
2022/09/05 01:12:01;;;;;;;1.90;1.60;;;;;;;;;;5095413;28;20091;-82
2022/09/05 01:15:16;;;;;;;2.20;1.70;;;;;;;;;;5095350;28;20089;-82
2022/09/05 01:17:41;;;;;;;;;;;;;;;;;;5068436;28;20069;-82
2022/09/05 01:20:27;;;;;;;1.90;1.70;;;;;;;;;;5113743;28;20331;-82
2022/09/05 01:23:04;;;;;;;2.05;1.80;;;;;;;;;;5113625;28;20046;-83
2022/09/05 01:25:51;;;;;;;2.55;1.83;;;;;;;;;;5113432;28;20055;-82
2022/09/05 01:28:30;;;;;;;2.92;1.90;;;;;;;;;;5095056;28;20119;-83
2022/09/05 01:31:02;;;;;;;3.45;1.70;;;;;;;;;;5078303;28;20524;-83
2022/09/05 01:33:42;;;;;;;2.00;1.80;;;;;;;;;;5094821;28;20055;-82
2022/09/05 01:36:58;;;;;;;2.35;1.80;;;;;;;;;;5095082;28;20020;-83
2022/09/05 01:39:35;;;;;;;2.20;1.73;;;;;;;;;;5070502;28;20040;-83
2022/09/05 01:42:28;;;;;;;1.80;1.70;;;;;;;;;;5094847;28;20455;-82
2022/09/05 01:45:15;;;;;;;2.45;1.77;;;;;;;;;;5078138;28;20031;-83
2022/09/05 01:48:03;;;;;;;2.55;1.70;;;;;;;;;;5113491;28;20088;-82
2022/09/05 01:50:45;;;;;;;3.05;1.80;;;;;;;;;;5077643;28;20035;-83
2022/09/05 01:53:24;;;;;;;2.25;1.60;;;;;;;;;;5095003;28;20024;-83
2022/09/05 01:56:11;;;;;;;3.53;1.65;;;;;;;;;;5094724;28;20027;-83
2022/09/05 01:58:54;;;;;;;3.35;1.83;;;;;;;;;;5094719;28;20116;-82
2022/09/05 02:01:26;;;;;;;3.90;1.77;;;;;;;;;;5094551;28;20042;-83
2022/09/05 02:04:25;;;;;;;1.80;1.70;;;;;;;;;;5094732;28;20122;-83
2022/09/05 02:07:43;;;;;;;2.92;1.98;;;;;;;;;;5113112;28;20073;-82
2022/09/05 02:10:11;;;;;;;1.83;1.67;;;;;;;;;;5040113;28;20088;-83
2022/09/05 02:12:45;;;;;;;4.13;2.08;;;;;;;;;;5094512;28;20027;-82
2022/09/05 02:15:20;;;;;;;1.92;1.80;;;;;;;;;;5094699;28;20023;-82
2022/09/05 02:18:00;;;;;;;1.90;1.70;;;;;;;;;;5095208;28;20050;-83
2022/09/05 02:20:30;;;;;;;2.08;1.83;;;;;;;;;;5082100;28;20040;-82
2022/09/05 02:23:31;;;;;;;2.60;1.70;;;;;;;;;;5117552;28;20111;-83
2022/09/05 02:26:19;;;;;;;2.60;1.70;;;;;;;;;;5046273;28;20118;-82
2022/09/05 02:29:11;;;;;;;1.92;1.77;;;;;;;;;;5098799;28;20102;-83
2022/09/05 02:31:54;;;;;;;2.30;1.77;;;;;;;;;;5098725;28;20085;-82
2022/09/05 02:34:24;;;;;;;2.10;1.83;;;;;;;;;;5098543;28;20088;-83
2022/09/05 02:37:16;;;;;;;2.00;1.90;;;;;;;;;;5116512;28;20103;-82
2022/09/05 02:40:02;;;;;;;2.00;1.80;;;;;;;;;;5098394;28;20110;-82
2022/09/05 02:42:46;;;;;;;2.63;1.90;;;;;;;;;;5081163;28;20028;-83
2022/09/05 02:45:45;;;;;;;2.00;1.80;;;;;;;;;;5116398;28;20428;-83
2022/09/05 02:48:28;;;;;;;2.10;1.60;;;;;;;;;;5116668;28;20028;-83
2022/09/05 02:51:18;;;;;;;2.10;1.90;;;;;;;;;;5116581;28;20024;-83
2022/09/05 02:53:51;;;;;;;2.22;1.65;;;;;;;;;;5081101;28;20051;-82
2022/09/05 02:56:30;;;;;;;1.85;1.75;;;;;;;;;;5080953;28;20028;-83
2022/09/05 02:59:24;;;;;;;2.03;1.75;;;;;;;;;;5097629;28;20038;-82
2022/09/05 03:02:20;;;;;;;2.53;1.83;;;;;;;;;;5081064;28;20118;-82
2022/09/05 03:05:07;;;;;;;2.33;1.83;;;;;;;;;;5097574;28;20111;-83
2022/09/05 03:07:54;;;;;;;2.60;2.17;;;;;;;;;;5116261;28;20042;-83
2022/09/05 03:10:29;;;;;;;2.20;1.88;;;;;;;;;;5116062;28;20459;-84
2022/09/05 03:13:13;;;;;;;2.83;1.90;;;;;;;;;;5115940;28;20483;-83
2022/09/05 03:16:13;;;;;;;2.33;1.90;;;;;;;;;;5115985;28;20028;-84
2022/09/05 03:19:06;;;;;;;2.03;1.83;;;;;;;;;;5097361;28;20044;-83
2022/09/05 03:21:53;;;;;;;1.70;1.60;;;;;;;;;;5097842;28;20030;-83
2022/09/05 03:25:02;;;;;;;2.45;2.22;;;;;;;;;;5097079;28;20267;-82
2022/09/05 03:27:49;;;;;;;2.17;1.90;;;;;;;;;;5086313;28;20035;-83
2022/09/05 03:30:22;;;;;;;3.15;2.00;;;;;;;;;;5095708;28;20091;-82
2022/09/05 03:32:55;;;;;;;3.25;1.73;;;;;;;;;;5096760;28;20131;-83
2022/09/05 03:35:51;;;;;;;2.37;2.00;;;;;;;;;;5097373;28;20085;-83
2022/09/05 03:38:47;;;;;;;2.47;2.00;;;;;;;;;;5115604;28;20347;-82
2022/09/05 03:41:33;;;;;;;1.90;1.80;;;;;;;;;;5115213;28;20015;-83
2022/09/05 03:44:26;;;;;;;2.28;2.08;;;;;;;;;;5115301;28;20032;-83
2022/09/05 03:47:13;;;;;;;2.45;2.00;;;;;;;;;;5097097;28;20024;-84
2022/09/05 03:49:49;;;;;;;2.38;1.90;;;;;;;;;;5099244;28;20087;-82
2022/09/05 03:52:20;;;;;;;4.72;2.10;;;;;;;;;;5102772;28;20024;-82
2022/09/05 03:54:51;;;;;;;2.22;2.03;;;;;;;;;;5097544;28;20020;-83
2022/09/05 03:57:25;;;;;;;2.97;2.50;;;;;;;;;;5097185;28;20030;-83
2022/09/05 03:59:54;;;;;;;2.38;2.17;;;;;;;;;;5115341;28;20157;-83
2022/09/05 04:02:28;;;;;;;4.05;2.33;;;;;;;;;;5096932;28;20028;-82
2022/09/05 04:05:02;;;;;;;3.30;2.10;;;;;;;;;;5080046;28;20108;-82
2022/09/05 04:07:34;;;;;;;2.97;2.40;;;;;;;;;;5081886;28;20391;-82
2022/09/05 04:10:02;;;;;;;3.97;2.38;;;;;;;;;;5096659;28;20024;-82
2022/09/05 04:12:57;;;;;;;8.13;3.13;;;;;;;;;;5097083;28;20034;-83
2022/09/05 04:15:39;;;;;;;8.20;3.00;;;;;;;;;;5076826;28;20502;-85
2022/09/05 04:18:36;;;;;;;2.95;2.63;;;;;;;;;;5096368;28;20608;-83
2022/09/05 04:21:23;;;;;;;4.15;2.53;;;;;;;;;;5061662;28;20077;-84
2022/09/05 04:24:00;;;;;;;6.75;2.53;;;;;;;;;;5097226;28;20481;-80
2022/09/05 04:26:49;;;;;;;5.20;2.72;;;;;;;;;;5096445;28;20031;-86
2022/09/05 04:29:14;;;;;;;5.63;3.30;;;;;;;;;;5096350;28;20141;-84
2022/09/05 04:31:45;;;;;;;8.40;3.10;;;;;;;;;;5096629;28;20027;-87
2022/09/05 04:34:36;;;;;;;5.85;3.17;;;;;;;;;;5115972;28;20450;-82
2022/09/05 04:37:04;;;;;;;9.10;3.20;;;;;;;;;;5097965;28;20567;-86
2022/09/05 04:39:32;;;;;;;5.35;2.70;;;;;;;;;;5097473;28;20069;-87
2022/09/05 04:42:03;;;;;;;3.78;2.63;;;;;;;;;;5080571;28;20030;-87
2022/09/05 04:44:52;;;;;;;4.88;2.72;;;;;;;;;;5112947;28;20506;-85
2022/09/05 04:47:27;;;;;;;7.53;2.80;;;;;;;;;;5060662;28;20114;-86
2022/09/05 04:50:14;;;;;;;3.88;2.42;;;;;;;;;;5077795;28;20032;-83
2022/09/05 04:53:07;;;;;;;6.25;2.70;;;;;;;;;;5079749;28;20357;-82
2022/09/05 04:55:40;;;;;;;5.75;3.00;;;;;;;;;;5076985;28;20106;-81
2022/09/05 04:58:13;;;;;;;10.67;3.93;;;;;;;;;;5075399;28;20043;-80
2022/09/05 05:00:54;;;;;;;10.18;4.00;;;;;;;;;;5075070;28;20074;-80
2022/09/05 05:03:26;;;;;;;9.10;4.43;;;;;;;;;;5075317;28;20024;-81
2022/09/05 05:05:57;;;;;;;13.43;5.22;;;;;;;;;;5075247;28;20032;-80
2022/09/05 05:08:29;;;;;;;13.48;5.35;;;;;;;;;;5075147;28;20074;-79
2022/09/05 05:11:02;;;;;;;15.18;5.20;;;;;;;;;;5075195;28;20012;-81
2022/09/05 05:13:29;;;;;;;;;;;;;;;;;;5075522;28;20114;-81
2022/09/05 05:15:54;;;;;;;14.82;4.07;;;;;;;;;;5075075;28;20298;-81
2022/09/05 05:18:45;;;;;;;12.55;4.03;;;;;;;;;;5093090;28;20059;-80
2022/09/05 05:21:17;;;;;;;15.18;4.20;;;;;;;;;;5075040;28;20020;-80
2022/09/05 05:23:49;;;;;;;7.55;3.80;;;;;;;;;;5058147;28;20024;-80
2022/09/05 05:26:25;;;;;;;10.20;3.97;;;;;;;;;;5075078;28;20075;-80
2022/09/05 05:29:02;;;;;;;7.93;3.92;;;;;;;;;;5092963;28;20024;-80
2022/09/05 05:31:30;;;;;;;11.98;3.85;;;;;;;;;;5092778;28;20046;-80
2022/09/05 05:34:00;;;;;;;9.82;3.60;;;;;;;;;;5058094;28;20030;-80
2022/09/05 05:36:38;;;;;;;7.55;3.83;;;;;;;;;;5057940;28;20107;-81
2022/09/05 05:39:09;;;;;;;5.97;3.83;;;;;;;;;;5074685;28;20052;-81
2022/09/05 05:41:43;;;;;;;9.07;3.92;;;;;;;;;;5076399;28;20024;-83
2022/09/05 05:44:14;;;;;;;7.55;3.85;;;;;;;;;;5047930;28;20034;-80
2022/09/05 05:46:46;;;;;;;9.77;3.50;;;;;;;;;;5076783;28;20024;-81
2022/09/05 05:49:49;;;;;;;7.43;3.83;;;;;;;;;;5075586;28;20423;-81
2022/09/05 05:52:23;;;;;;;8.77;3.60;;;;;;;;;;5094506;28;20376;-80
2022/09/05 05:55:12;;;;;;;10.20;3.95;;;;;;;;;;5093299;28;20107;-80
2022/09/05 05:57:38;;;;;;;6.50;3.38;;;;;;;;;;5093413;28;20023;-81
2022/09/05 06:00:42;;;;;;;8.45;3.30;;;;;;;;;;5075151;28;20036;-80
2022/09/05 06:03:32;;;;;;;6.68;3.20;;;;;;;;;;5011644;28;20104;-80
2022/09/05 06:06:06;;;;;;;4.68;3.38;;;;;;;;;;4994965;28;20038;-80
2022/09/05 06:08:46;;;;;;;4.95;3.22;;;;;;;;;;5034154;28;20051;-80
2022/09/05 06:11:26;;;;;;;5.93;3.30;;;;;;;;;;5093199;28;20028;-80
2022/09/05 06:14:09;;;;;;;5.15;2.92;;;;;;;;;;5075228;28;20052;-80
2022/09/05 06:17:05;;;;;;;7.90;3.42;;;;;;;;;;5093395;28;20024;-80
2022/09/05 06:19:40;;;;;;;4.57;2.95;;;;;;;;;;5092895;28;20090;-80
2022/09/05 06:22:24;;;;;;;4.07;3.40;;;;;;;;;;5075041;28;20027;-81
2022/09/05 06:25:03;;;;;;;5.20;3.30;;;;;;;;;;5093075;28;20170;-81
2022/09/05 06:27:44;;;;;;;7.53;3.30;;;;;;;;;;5058328;28;20573;-80
2022/09/05 06:30:20;;;;;;;4.10;2.80;;;;;;;;;;5093665;28;20024;-80
2022/09/05 06:33:04;;;;;;;5.57;2.97;;;;;;;;;;5093167;28;20024;-81
2022/09/05 06:35:53;;;;;;;3.72;2.85;;;;;;;;;;5093014;28;20052;-80
2022/09/05 06:38:32;;;;;;;5.28;3.15;;;;;;;;;;5093490;28;20056;-80
2022/09/05 06:41:06;;;;;;;9.80;2.85;;;;;;;;;;5075002;28;20483;-79
2022/09/05 06:43:46;;;;;;;4.30;2.72;;;;;;;;;;5093099;28;20394;-80
2022/09/05 06:46:21;;;;;;;5.47;2.88;;;;;;;;;;5092908;28;20117;-79
2022/09/05 06:49:14;;;;;;;9.52;2.88;;;;;;;;;;5074792;28;20111;-80
2022/09/05 06:52:04;;;;;;;5.22;3.10;;;;;;;;;;5075476;28;20035;-79
2022/09/05 06:54:48;;;;;;;5.22;2.65;;;;;;;;;;5093044;28;20051;-80
2022/09/05 06:57:29;;;;;;;5.63;3.07;;;;;;;;;;5092736;28;20475;-80
2022/09/05 07:00:04;;;;;;;5.78;2.80;;;;;;;;;;5093014;28;20276;-79
2022/09/05 07:02:47;;;;;;;9.77;2.95;;;;;;;;;;5092741;28;20074;-80
2022/09/05 07:05:22;;;;;;;6.25;2.97;;;;;;;;;;5075880;28;20474;-80
2022/09/05 07:07:54;;;;;;;6.82;3.25;;;;;;;;;;5096362;28;20026;-80
2022/09/05 07:10:26;;;;;;;5.57;2.78;;;;;;;;;;5061529;28;20024;-80
2022/09/05 07:13:01;;;;;;;4.95;3.10;;;;;;;;;;5061529;28;20035;-80
2022/09/05 07:15:32;;;;;;;3.78;2.70;;;;;;;;;;5078162;28;20077;-79
2022/09/05 07:18:16;;;;;;;6.82;2.90;;;;;;;;;;5061141;28;20044;-79
2022/09/05 07:21:00;;;;;;;5.03;2.90;;;;;;;;;;5061035;28;20032;-79
2022/09/05 07:23:44;;;;;;;;;;;;;;;;;;5078971;28;20090;-79
2022/09/05 07:26:10;;;;;;;4.72;2.35;;;;;;;;;;5096645;28;19915;-79
2022/09/05 07:28:40;;;;;;;3.90;2.47;;;;;;;;;;5078215;28;20036;-79
2022/09/05 07:31:12;;;;;;;4.38;3.10;;;;;;;;;;5077906;28;20380;-79
2022/09/05 07:33:38;;;;;;;6.30;2.80;;;;;;;;;;5077819;28;20028;-79
2022/09/05 07:36:15;;;;;;;5.00;2.70;;;;;;;;;;5077949;28;20055;-80
2022/09/05 07:38:42;;;;;;;6.45;2.40;;;;;;;;;;5096217;28;20062;-79
2022/09/05 07:41:26;;;;;;;4.03;2.63;;;;;;;;;;5077593;28;20100;-79
2022/09/05 07:43:58;;;;;;;5.30;2.42;;;;;;;;;;5077577;28;20024;-80
2022/09/05 07:46:30;;;;;;;3.47;2.38;;;;;;;;;;5077560;28;20092;-80
2022/09/05 07:49:02;;;;;;;4.13;2.55;;;;;;;;;;5078151;28;20039;-80
2022/09/05 07:51:30;;;;;;;5.90;2.38;;;;;;;;;;5060746;28;20487;-80
2022/09/05 07:54:01;;;;;;;4.38;2.90;;;;;;;;;;5077754;28;20020;-80
2022/09/05 07:56:56;;;;;;;8.20;2.60;;;;;;;;;;5095496;28;20028;-80
2022/09/05 07:59:23;;;;;;;7.38;2.42;;;;;;;;;;5077132;28;20081;-80
2022/09/05 08:01:52;;;;;;;5.57;2.67;;;;;;;;;;5077589;28;20028;-80
2022/09/05 08:04:28;;;;;;;4.15;2.42;;;;;;;;;;5077314;28;20430;-80
2022/09/05 08:06:56;;;;;;;2.78;2.53;;;;;;;;;;5077786;28;20113;-80
2022/09/05 08:09:25;;;;;;;5.88;2.55;;;;;;;;;;5079524;28;20031;-78
2022/09/05 08:11:52;;;;;;;3.22;2.40;;;;;;;;;;5083454;28;20453;-79
2022/09/05 08:14:38;;;;;;;4.95;2.75;;;;;;;;;;5069073;28;20398;-79
2022/09/05 08:17:06;;;;;;;5.03;2.78;;;;;;;;;;5096771;28;20040;-80
2022/09/05 08:19:56;;;;;;;3.20;2.63;;;;;;;;;;5060588;28;20134;-80
2022/09/05 08:22:29;;;;;;;3.33;2.60;;;;;;;;;;5095007;28;20515;-80
2022/09/05 08:24:57;;;;;;;3.83;2.33;;;;;;;;;;5076951;28;20035;-79
2022/09/05 08:28:01;;;;;;;7.68;2.63;;;;;;;;;;5060249;28;20035;-79
2022/09/05 08:30:26;;;;;;;4.32;2.10;;;;;;;;;;5094805;28;20016;-80
2022/09/05 08:33:04;;;;;;;5.28;2.50;;;;;;;;;;5077091;28;20031;-80
2022/09/05 08:35:51;;;;;;;3.60;2.80;;;;;;;;;;5076666;28;20035;-79
2022/09/05 08:38:17;;;;;;;3.10;2.17;;;;;;;;;;5094934;28;20532;-80
2022/09/05 08:40:45;;;;;;;5.28;2.78;;;;;;;;;;5076750;28;20032;-80
2022/09/05 08:43:22;;;;;;;3.22;2.33;;;;;;;;;;5094855;28;20051;-80
2022/09/05 08:46:06;;;;;;;4.82;2.80;;;;;;;;;;5076466;28;20024;-80
2022/09/05 08:48:46;;;;;;;4.50;2.60;;;;;;;;;;5094898;28;20078;-80
2022/09/05 08:51:51;;;;;;;3.95;2.60;;;;;;;;;;5094333;28;20027;-80
2022/09/05 08:54:20;;;;;;;3.63;2.30;;;;;;;;;;5076203;28;20051;-80
2022/09/05 08:57:09;;;;;;;6.88;2.63;;;;;;;;;;5075963;28;20024;-80
2022/09/05 08:59:53;;;;;;;3.72;2.13;;;;;;;;;;5056197;28;20492;-79
2022/09/05 09:02:19;;;;;;;4.28;2.40;;;;;;;;;;5076389;28;20472;-80
2022/09/05 09:04:54;;;;;;;3.50;2.15;;;;;;;;;;5075945;28;20024;-80
2022/09/05 09:07:35;;;;;;;2.75;2.30;;;;;;;;;;5076023;28;20027;-79
2022/09/05 09:10:07;;;;;;;3.97;2.50;;;;;;;;;;5059244;28;20447;-80
2022/09/05 09:13:06;;;;;;;2.95;2.50;;;;;;;;;;5075966;28;20023;-80
2022/09/05 09:16:03;;;;;;;2.80;2.13;;;;;;;;;;5094474;28;20380;-79
2022/09/05 09:18:43;;;;;;;3.10;2.50;;;;;;;;;;5075767;28;20048;-80
2022/09/05 09:21:21;;;;;;;4.25;2.53;;;;;;;;;;5075724;28;20020;-80
2022/09/05 09:23:52;;;;;;;4.50;2.28;;;;;;;;;;5075803;28;20399;-80
2022/09/05 09:26:31;;;;;;;2.30;2.10;;;;;;;;;;5076068;28;20357;-79
2022/09/05 09:29:08;;;;;;;2.30;2.10;;;;;;;;;;5074942;28;20031;-79
2022/09/05 09:31:56;;;;;;;2.55;2.20;;;;;;;;;;5075658;28;20020;-79
2022/09/05 09:34:24;;;;;;;3.22;2.20;;;;;;;;;;5075613;28;20114;-80
2022/09/05 09:36:59;;;;;;;3.22;2.20;;;;;;;;;;5093938;28;20539;-79
2022/09/05 09:39:50;;;;;;;2.15;1.85;;;;;;;;;;5093787;28;20150;-79
2022/09/05 09:42:31;;;;;;;3.60;2.30;;;;;;;;;;5058661;28;20032;-79
2022/09/05 09:45:05;;;;;;;2.10;1.90;;;;;;;;;;5075587;28;20061;-80
2022/09/05 09:47:52;;;;;;;4.28;2.15;;;;;;;;;;5075304;28;20032;-80
2022/09/05 09:50:37;;;;;;;2.38;2.08;;;;;;;;;;5075285;28;20020;-79
2022/09/05 09:53:24;;;;;;;3.13;1.95;;;;;;;;;;5075359;28;20066;-80
2022/09/05 09:56:08;;;;;;;2.35;1.95;;;;;;;;;;5093419;28;20028;-80
2022/09/05 09:58:40;;;;;;;2.22;2.03;;;;;;;;;;5093330;28;20020;-80
2022/09/05 10:01:20;;;;;;;3.53;2.30;;;;;;;;;;5093234;28;20054;-80
2022/09/05 10:04:00;;;;;;;5.03;2.10;;;;;;;;;;5075399;28;20032;-79
2022/09/05 10:06:59;;;;;;;2.70;1.95;;;;;;;;;;5075611;28;20028;-79
2022/09/05 10:09:57;;;;;;;2.70;2.03;;;;;;;;;;5075104;28;20027;-80
2022/09/05 10:12:47;;;;;;;2.20;2.00;;;;;;;;;;5072953;28;20043;-80
2022/09/05 10:15:29;;;;;;;4.43;2.00;;;;;;;;;;5093218;28;20020;-80
2022/09/05 10:18:36;;;;;;;3.08;2.20;;;;;;;;;;5075024;28;20043;-80
2022/09/05 10:21:10;;;;;;;2.80;2.05;;;;;;;;;;5074896;28;20036;-79
2022/09/05 10:24:03;;;;;;;2.50;2.00;;;;;;;;;;5093104;28;20027;-79
2022/09/05 10:26:31;;;;;;;2.33;1.80;;;;;;;;;;5093385;28;20129;-79
2022/09/05 10:29:35;;;;;;;2.15;1.73;;;;;;;;;;5093063;28;20487;-80
2022/09/05 10:32:23;;;;;;;3.03;2.10;;;;;;;;;;5092722;28;20024;-80
2022/09/05 10:34:58;;;;;;;2.13;1.88;;;;;;;;;;5058176;28;20032;-80
2022/09/05 10:37:42;;;;;;;3.20;2.28;;;;;;;;;;5074975;28;20063;-81
2022/09/05 10:40:11;;;;;;;2.67;1.92;;;;;;;;;;5077951;28;20024;-81
2022/09/05 10:42:44;;;;;;;1.80;1.70;;;;;;;;;;5078809;28;20027;-82
2022/09/05 10:45:27;;;;;;;4.15;2.20;;;;;;;;;;5078880;28;20028;-81
2022/09/05 10:48:10;;;;;;;4.68;1.90;;;;;;;;;;5079318;28;20383;-81
2022/09/05 10:50:40;;;;;;;3.50;1.90;;;;;;;;;;5078606;28;20023;-82
2022/09/05 10:53:19;;;;;;;3.30;1.65;;;;;;;;;;5061725;28;20028;-81
2022/09/05 10:55:59;;;;;;;2.05;1.80;;;;;;;;;;5096772;28;20019;-81
2022/09/05 10:58:46;;;;;;;1.90;1.73;;;;;;;;;;5061689;28;20044;-81
2022/09/05 11:01:11;;;;;;;4.43;2.30;;;;;;;;;;5096502;28;20031;-81
2022/09/05 11:03:52;;;;;;;1.87;1.70;;;;;;;;;;5096477;28;20016;-81
2022/09/05 11:06:22;;;;;;;4.18;1.88;;;;;;;;;;5097402;28;20264;-81
2022/09/05 11:09:01;;;;;;;4.40;1.92;;;;;;;;;;5081501;28;20024;-82
2022/09/05 11:11:27;;;;;;;4.50;1.65;;;;;;;;;;5078696;28;20023;-82
2022/09/05 11:13:54;;;;;;;3.40;1.77;;;;;;;;;;5078828;28;20036;-81
2022/09/05 11:16:47;;;;;;;2.42;1.83;;;;;;;;;;5078911;28;20510;-82
2022/09/05 11:19:26;;;;;;;2.05;1.85;;;;;;;;;;5096151;28;20063;-82
2022/09/05 11:22:18;;;;;;;2.50;1.70;;;;;;;;;;5077992;28;20097;-82
2022/09/05 11:25:01;;;;;;;4.95;2.10;;;;;;;;;;5074049;28;20036;-82
2022/09/05 11:27:42;;;;;;;2.25;1.70;;;;;;;;;;5077987;28;20028;-82
2022/09/05 11:30:14;;;;;;;4.15;2.03;;;;;;;;;;5094804;28;20023;-82
2022/09/05 11:32:39;;;;;;;3.17;2.00;;;;;;;;;;5095906;28;20042;-82
2022/09/05 11:35:11;;;;;;;4.60;2.20;;;;;;;;;;5096164;28;20020;-82
2022/09/05 11:37:45;;;;;;;2.47;1.90;;;;;;;;;;5095838;28;20016;-82
2022/09/05 11:40:10;;;;;;;2.40;1.92;;;;;;;;;;5095976;28;20028;-82
2022/09/05 11:42:44;;;;;;;4.80;2.20;;;;;;;;;;5096038;28;20154;-82
2022/09/05 11:45:36;;;;;;;3.88;1.80;;;;;;;;;;5077533;28;20256;-82
2022/09/05 11:48:39;;;;;;;2.35;1.90;;;;;;;;;;5040161;28;20047;-82
2022/09/05 11:51:13;;;;;;;4.13;1.88;;;;;;;;;;5095034;28;20043;-81
2022/09/05 11:54:12;;;;;;;2.42;1.60;;;;;;;;;;5103702;28;20047;-81
2022/09/05 11:57:00;;;;;;;1.80;1.50;;;;;;;;;;5077763;28;20102;-81
2022/09/05 12:00:05;;;;;;;2.63;1.92;;;;;;;;;;5100936;28;20019;-81
2022/09/05 12:02:49;;;;;;;4.53;1.70;;;;;;;;;;5072321;28;20059;-82
2022/09/05 12:05:32;;;;;;;4.40;1.80;;;;;;;;;;5095484;28;20020;-81
2022/09/05 12:08:19;;;;;;;2.65;1.80;;;;;;;;;;5077146;28;20032;-84
2022/09/05 12:11:16;;;;;;;3.05;1.75;;;;;;;;;;5076938;28;20028;-82
2022/09/05 12:13:50;;;;;;;2.95;1.60;;;;;;;;;;5076943;28;20035;-81
2022/09/05 12:16:49;;;;;;;6.53;1.70;;;;;;;;;;5076879;28;20162;-83
2022/09/05 12:19:29;;;;;;;3.85;1.95;;;;;;;;;;5076580;28;20054;-84
2022/09/05 12:22:23;;;;;;;3.72;1.50;;;;;;;;;;5094970;28;20103;-83
2022/09/05 12:25:13;;;;;;;7.57;1.70;;;;;;;;;;5076936;28;20035;-81
2022/09/05 12:27:40;;;;;;;1.88;1.52;;;;;;;;;;5077428;28;20034;-83
2022/09/05 12:30:12;;;;;;;5.95;1.63;;;;;;;;;;5077721;28;20048;-82
2022/09/05 12:33:09;;;;;;;7.43;2.05;;;;;;;;;;5061169;28;20024;-82
2022/09/05 12:35:35;;;;;;;6.28;1.90;;;;;;;;;;5061669;28;20026;-82
2022/09/05 12:38:26;;;;;;;5.75;1.83;;;;;;;;;;5076889;28;20028;-81
2022/09/05 12:41:00;;;;;;;5.18;1.58;;;;;;;;;;5076843;28;20042;-79
2022/09/05 12:43:26;;;;;;;2.80;1.58;;;;;;;;;;5076437;28;20058;-77
2022/09/05 12:45:57;;;;;;;5.07;1.85;;;;;;;;;;5059863;28;20040;-77
2022/09/05 12:48:30;;;;;;;2.40;1.70;;;;;;;;;;5076386;28;20436;-77
2022/09/05 12:50:58;;;;;;;2.93;1.40;;;;;;;;;;5059834;28;20096;-77
2022/09/05 12:53:33;;;;;;;2.85;1.40;;;;;;;;;;5076173;28;20024;-81
2022/09/05 12:56:06;;;;;;;2.95;1.60;;;;;;;;;;5094955;28;20118;-82
2022/09/05 12:58:36;;;;;;;2.28;1.65;;;;;;;;;;5079927;28;20098;-81
2022/09/05 13:01:16;;;;;;;1.58;1.20;;;;;;;;;;5096409;28;20032;-80
2022/09/05 13:03:51;;;;;;;1.98;1.48;;;;;;;;;;5079756;28;20039;-80
2022/09/05 13:06:22;;;;;;;2.28;1.40;;;;;;;;;;5096389;28;20024;-80
2022/09/05 13:08:50;;;;;;;5.80;2.33;;;;;;;;;;5062439;28;20039;-77
2022/09/05 13:11:23;;;;;;;1.88;1.30;;;;;;;;;;5062625;28;20039;-79
2022/09/05 13:13:55;;;;;;;3.00;1.30;;;;;;;;;;5078794;28;20035;-80
2022/09/05 13:16:24;;;;;;;3.28;1.50;;;;;;;;;;5061320;28;20028;-79
2022/09/05 13:18:59;;;;;;;1.73;1.33;;;;;;;;;;5076713;28;20484;-79
2022/09/05 13:21:25;;;;;;;3.95;1.52;;;;;;;;;;5060261;28;20020;-80
2022/09/05 13:24:16;;;;;;;1.30;1.20;;;;;;;;;;5060871;28;20032;-80
2022/09/05 13:26:43;;;;;;;1.88;1.42;;;;;;;;;;5078330;28;20077;-80
2022/09/05 13:29:16;;;;;;;1.40;1.30;;;;;;;;;;5079063;28;20054;-81
2022/09/05 13:31:41;;;;;;;2.30;1.48;;;;;;;;;;5096883;28;20081;-81
2022/09/05 13:34:18;;;;;;;3.65;1.52;;;;;;;;;;5077608;28;20032;-81
2022/09/05 13:37:06;;;;;;;2.42;1.45;;;;;;;;;;5077904;28;20034;-80
2022/09/05 13:39:37;;;;;;;1.40;1.30;;;;;;;;;;5077778;28;20101;-82
2022/09/05 13:42:03;;;;;;;3.58;1.58;;;;;;;;;;5095782;28;20023;-81
2022/09/05 13:44:35;;;;;;;2.22;1.30;;;;;;;;;;5078776;28;20044;-81
2022/09/05 13:47:01;;;;;;;3.80;1.70;;;;;;;;;;5077537;28;20024;-81
2022/09/05 13:49:36;;;;;;;1.30;1.20;;;;;;;;;;5095628;28;20032;-81
2022/09/05 13:52:26;;;;;;;3.22;1.70;;;;;;;;;;5077520;28;20024;-81
2022/09/05 13:54:59;;;;;;;1.55;1.17;;;;;;;;;;5096634;28;20032;-81
2022/09/05 13:57:41;;;;;;;3.22;1.30;;;;;;;;;;5095360;28;20433;-81
2022/09/05 14:00:16;;;;;;;2.38;1.30;;;;;;;;;;5060891;28;20438;-82
2022/09/05 14:02:46;;;;;;;2.90;1.40;;;;;;;;;;5096307;28;20057;-82
2022/09/05 14:05:26;;;;;;;1.48;1.17;;;;;;;;;;5077197;28;20074;-78
2022/09/05 14:08:25;;;;;;;1.27;1.10;;;;;;;;;;5060178;28;20044;-81
2022/09/05 14:11:19;;;;;;;1.33;1.20;;;;;;;;;;5094320;28;20028;-81
2022/09/05 14:13:50;;;;;;;1.77;1.40;;;;;;;;;;5094356;28;20020;-80
2022/09/05 14:16:22;;;;;;;4.10;1.30;;;;;;;;;;5098508;28;20259;-80
2022/09/05 14:21:43;;;;;;;2.20;1.20;;;;;;;;;;5036106;28;20132;-80
2022/09/05 14:24:13;;;;;;;1.77;1.30;;;;;;;;;;5063546;28;20488;-80
2022/09/05 14:27:01;;;;;;;3.95;1.80;;;;;;;;;;5080320;28;20028;-80
2022/09/05 14:29:37;;;;;;;2.65;1.30;;;;;;;;;;5079488;28;20020;-80
2022/09/05 14:32:15;;;;;;;1.38;1.20;;;;;;;;;;5079732;28;20028;-80
2022/09/05 14:35:13;;;;;;;7.07;1.48;;;;;;;;;;5079701;28;20032;-81
2022/09/05 14:38:04;;;;;;;1.42;1.20;;;;;;;;;;5098193;28;20035;-78
2022/09/05 14:41:06;;;;;;;2.45;1.40;;;;;;;;;;5079989;28;20016;-79
2022/09/05 14:44:00;;;;;;;1.40;1.13;;;;;;;;;;5079826;28;20028;-81
2022/09/05 14:46:53;;;;;;;3.00;1.37;;;;;;;;;;5079634;28;20027;-81
2022/09/05 14:49:39;;;;;;;3.13;1.50;;;;;;;;;;5078995;28;20326;-82
2022/09/05 14:52:22;;;;;;;2.55;1.38;;;;;;;;;;5096706;28;20023;-81
2022/09/05 14:54:58;;;;;;;2.27;1.30;;;;;;;;;;5061783;28;20024;-81
2022/09/05 14:57:30;;;;;;;1.30;1.20;;;;;;;;;;5064296;28;20024;-82
2022/09/05 14:59:59;;;;;;;1.33;1.17;;;;;;;;;;5081858;28;20024;-80
2022/09/05 15:02:32;;;;;;;1.60;1.30;;;;;;;;;;5099257;28;20384;-81
2022/09/05 15:05:01;;;;;;;1.90;1.40;;;;;;;;;;5081825;28;20028;-80
2022/09/05 15:07:31;;;;;;;2.35;1.20;;;;;;;;;;5064024;28;20028;-80
2022/09/05 15:10:11;;;;;;;1.27;1.15;;;;;;;;;;5098598;28;20024;-81
2022/09/05 15:12:45;;;;;;;3.38;1.40;;;;;;;;;;5098259;28;20055;-80
2022/09/05 15:15:21;;;;;;;;;;;;;;;;;;5080935;28;20483;-81
2022/09/05 15:17:50;;;;;;;1.35;1.10;;;;;;;;;;5080274;28;19912;-81
2022/09/05 15:20:28;;;;;;;2.88;1.27;;;;;;;;;;5098744;28;20032;-80
2022/09/05 15:22:53;;;;;;;1.38;1.27;;;;;;;;;;5096510;28;20440;-81
2022/09/05 15:25:22;;;;;;;2.45;1.30;;;;;;;;;;5078062;28;20062;-79
2022/09/05 15:27:48;;;;;;;1.58;1.20;;;;;;;;;;5061863;28;20027;-80
2022/09/05 15:30:29;;;;;;;1.60;1.30;;;;;;;;;;5080194;28;20047;-79
2022/09/05 15:33:12;;;;;;;1.45;1.35;;;;;;;;;;5081711;28;20055;-79
2022/09/05 15:35:41;;;;;;;2.03;1.20;;;;;;;;;;5063219;28;20020;-79
2022/09/05 15:38:42;;;;;;;2.15;1.13;;;;;;;;;;5097651;28;20369;-78
2022/09/05 15:41:14;;;;;;;3.58;1.30;;;;;;;;;;5038147;28;20036;-78
2022/09/05 15:43:55;;;;;;;1.23;1.10;;;;;;;;;;5080862;28;20111;-79
2022/09/05 15:46:23;;;;;;;1.58;1.10;;;;;;;;;;5098023;28;20447;-80
2022/09/05 15:48:55;;;;;;;2.90;1.45;;;;;;;;;;5097625;28;20086;-79
2022/09/05 15:51:41;;;;;;;2.42;1.20;;;;;;;;;;5062651;28;20430;-80
2022/09/05 15:54:09;;;;;;;1.30;1.20;;;;;;;;;;5079531;28;20040;-79
2022/09/05 15:56:35;;;;;;;1.38;1.10;;;;;;;;;;5098429;28;20115;-77
2022/09/05 15:59:01;;;;;;;1.42;1.20;;;;;;;;;;5062743;28;20032;-77
2022/09/05 16:01:36;;;;;;;2.60;1.20;;;;;;;;;;5097115;28;20029;-78